sensor_id;sensor_type;location;lat;lon;timestamp;pressure;altitude;pressure_sealevel;temperature;humidity
4598;BME280;62772;48.646;8.906;2023-07-22T00:04:38;96241.09;;;12.13;100.00
4598;BME280;62772;48.646;8.906;2023-07-22T00:09:38;96244.84;;;12.30;100.00
4598;BME280;62772;48.646;8.906;2023-07-22T00:14:40;96245.69;;;12.13;100.00
4598;BME280;62772;48.646;8.906;2023-07-22T00:19:41;96249.31;;;12.17;100.00
4598;BME280;62772;48.646;8.906;2023-07-22T00:24:41;96249.84;;;12.61;100.00
4598;BME280;62772;48.646;8.906;2023-07-22T00:29:42;96250.44;;;13.18;100.00
4598;BME280;62772;48.646;8.906;2023-07-22T00:34:42;96248.41;;;13.57;100.00
4598;BME280;62772;48.646;8.906;2023-07-22T00:39:43;96250.38;;;13.48;100.00
4598;BME280;62772;48.646;8.906;2023-07-22T00:44:43;96249.66;;;13.38;100.00
4598;BME280;62772;48.646;8.906;2023-07-22T00:49:46;96248.06;;;13.37;100.00
4598;BME280;62772;48.646;8.906;2023-07-22T00:54:47;96247.28;;;13.16;100.00
4598;BME280;62772;48.646;8.906;2023-07-22T00:59:48;96239.25;;;13.16;100.00
4598;BME280;62772;48.646;8.906;2023-07-22T01:04:50;96243.25;;;13.10;100.00
4598;BME280;62772;48.646;8.906;2023-07-22T01:09:56;96235.38;;;13.25;100.00
4598;BME280;62772;48.646;8.906;2023-07-22T01:14:56;96242.50;;;12.79;100.00
4598;BME280;62772;48.646;8.906;2023-07-22T01:19:58;96226.88;;;12.81;100.00
4598;BME280;62772;48.646;8.906;2023-07-22T01:24:59;96230.94;;;12.87;100.00
4598;BME280;62772;48.646;8.906;2023-07-22T01:30:00;96219.47;;;12.57;100.00
4598;BME280;62772;48.646;8.906;2023-07-22T01:35:02;96223.34;;;12.89;100.00
4598;BME280;62772;48.646;8.906;2023-07-22T01:40:03;96218.50;;;12.62;100.00
4598;BME280;62772;48.646;8.906;2023-07-22T01:45:13;96216.31;;;11.95;100.00
4598;BME280;62772;48.646;8.906;2023-07-22T01:50:13;96223.91;;;11.67;100.00
4598;BME280;62772;48.646;8.906;2023-07-22T01:55:14;96216.31;;;11.87;100.00
4598;BME280;62772;48.646;8.906;2023-07-22T02:00:15;96205.34;;;11.71;100.00
4598;BME280;62772;48.646;8.906;2023-07-22T02:05:15;96217.69;;;11.37;100.00
4598;BME280;62772;48.646;8.906;2023-07-22T02:10:16;96211.09;;;11.34;100.00
4598;BME280;62772;48.646;8.906;2023-07-22T02:15:16;96209.13;;;12.17;100.00
4598;BME280;62772;48.646;8.906;2023-07-22T02:20:19;96214.66;;;12.42;100.00
4598;BME280;62772;48.646;8.906;2023-07-22T02:25:24;96228.81;;;12.72;100.00
4598;BME280;62772;48.646;8.906;2023-07-22T02:30:24;96228.31;;;11.72;100.00
4598;BME280;62772;48.646;8.906;2023-07-22T02:35:25;96227.50;;;11.80;100.00
4598;BME280;62772;48.646;8.906;2023-07-22T02:40:25;96235.56;;;11.71;100.00
4598;BME280;62772;48.646;8.906;2023-07-22T02:45:26;96242.94;;;11.74;100.00
4598;BME280;62772;48.646;8.906;2023-07-22T02:50:27;96224.41;;;11.60;100.00
4598;BME280;62772;48.646;8.906;2023-07-22T02:55:27;96237.88;;;12.38;100.00
4598;BME280;62772;48.646;8.906;2023-07-22T03:00:28;96233.69;;;12.19;100.00
4598;BME280;62772;48.646;8.906;2023-07-22T03:05:29;96225.94;;;11.70;100.00
4598;BME280;62772;48.646;8.906;2023-07-22T03:10:30;96228.53;;;11.49;100.00
4598;BME280;62772;48.646;8.906;2023-07-22T03:15:31;96227.78;;;11.14;100.00
4598;BME280;62772;48.646;8.906;2023-07-22T03:20:31;96219.75;;;11.22;100.00
4598;BME280;62772;48.646;8.906;2023-07-22T03:25:32;96219.09;;;11.25;100.00
4598;BME280;62772;48.646;8.906;2023-07-22T03:30:33;96222.56;;;11.08;100.00
4598;BME280;62772;48.646;8.906;2023-07-22T03:35:34;96220.66;;;10.57;100.00
4598;BME280;62772;48.646;8.906;2023-07-22T03:40:34;96222.88;;;11.07;100.00
4598;BME280;62772;48.646;8.906;2023-07-22T03:45:35;96214.84;;;10.63;100.00
4598;BME280;62772;48.646;8.906;2023-07-22T03:50:36;96215.03;;;10.76;100.00
4598;BME280;62772;48.646;8.906;2023-07-22T03:55:36;96215.97;;;10.22;100.00
4598;BME280;62772;48.646;8.906;2023-07-22T04:00:38;96230.69;;;10.11;100.00
4598;BME280;62772;48.646;8.906;2023-07-22T04:05:38;96223.31;;;10.08;100.00
4598;BME280;62772;48.646;8.906;2023-07-22T04:10:39;96221.13;;;10.10;100.00
4598;BME280;62772;48.646;8.906;2023-07-22T04:15:39;96215.47;;;10.51;100.00
4598;BME280;62772;48.646;8.906;2023-07-22T04:20:39;96213.00;;;11.07;100.00
4598;BME280;62772;48.646;8.906;2023-07-22T04:25:41;96212.47;;;11.49;100.00
4598;BME280;62772;48.646;8.906;2023-07-22T04:30:42;96221.78;;;11.34;100.00
4598;BME280;62772;48.646;8.906;2023-07-22T04:35:42;96219.41;;;11.50;100.00
4598;BME280;62772;48.646;8.906;2023-07-22T04:40:43;96218.44;;;11.46;100.00
4598;BME280;62772;48.646;8.906;2023-07-22T04:45:45;96217.03;;;11.49;100.00
4598;BME280;62772;48.646;8.906;2023-07-22T04:50:48;96228.22;;;11.33;100.00
4598;BME280;62772;48.646;8.906;2023-07-22T04:55:48;96214.97;;;12.10;100.00
4598;BME280;62772;48.646;8.906;2023-07-22T05:00:49;96222.06;;;11.41;100.00
4598;BME280;62772;48.646;8.906;2023-07-22T05:05:49;96229.31;;;11.41;100.00
4598;BME280;62772;48.646;8.906;2023-07-22T05:10:50;96226.78;;;11.44;100.00
4598;BME280;62772;48.646;8.906;2023-07-22T05:15:50;96240.75;;;11.68;100.00
4598;BME280;62772;48.646;8.906;2023-07-22T05:20:51;96230.16;;;11.80;100.00
4598;BME280;62772;48.646;8.906;2023-07-22T05:25:52;96233.94;;;11.96;100.00
4598;BME280;62772;48.646;8.906;2023-07-22T05:30:55;96243.66;;;12.10;100.00
4598;BME280;62772;48.646;8.906;2023-07-22T05:35:56;96241.97;;;12.65;100.00
4598;BME280;62772;48.646;8.906;2023-07-22T05:40:56;96241.25;;;12.77;100.00
4598;BME280;62772;48.646;8.906;2023-07-22T05:45:57;96250.88;;;13.20;100.00
4598;BME280;62772;48.646;8.906;2023-07-22T05:50:58;96251.81;;;13.45;100.00
4598;BME280;62772;48.646;8.906;2023-07-22T05:55:58;96251.91;;;13.49;100.00
4598;BME280;62772;48.646;8.906;2023-07-22T06:00:59;96264.19;;;13.71;100.00
4598;BME280;62772;48.646;8.906;2023-07-22T06:05:59;96271.16;;;13.84;100.00
4598;BME280;62772;48.646;8.906;2023-07-22T06:11:00;96270.19;;;13.89;100.00
4598;BME280;62772;48.646;8.906;2023-07-22T06:16:00;96268.03;;;13.94;100.00
4598;BME280;62772;48.646;8.906;2023-07-22T06:21:01;96265.28;;;14.03;100.00
4598;BME280;62772;48.646;8.906;2023-07-22T06:26:01;96271.09;;;14.05;100.00
4598;BME280;62772;48.646;8.906;2023-07-22T06:31:02;96277.84;;;14.24;100.00
4598;BME280;62772;48.646;8.906;2023-07-22T06:36:03;96280.97;;;14.50;100.00
4598;BME280;62772;48.646;8.906;2023-07-22T06:41:03;96282.78;;;14.46;100.00
4598;BME280;62772;48.646;8.906;2023-07-22T06:46:04;96283.28;;;14.73;100.00
4598;BME280;62772;48.646;8.906;2023-07-22T06:51:04;96284.56;;;14.92;100.00
4598;BME280;62772;48.646;8.906;2023-07-22T06:56:04;96288.50;;;15.07;100.00
4598;BME280;62772;48.646;8.906;2023-07-22T07:01:05;96279.94;;;15.17;100.00
4598;BME280;62772;48.646;8.906;2023-07-22T07:06:05;96285.81;;;15.35;100.00
4598;BME280;62772;48.646;8.906;2023-07-22T07:11:06;96277.59;;;15.56;100.00
4598;BME280;62772;48.646;8.906;2023-07-22T07:16:30;96284.47;;;15.69;100.00
4598;BME280;62772;48.646;8.906;2023-07-22T07:21:31;96285.31;;;15.86;100.00
4598;BME280;62772;48.646;8.906;2023-07-22T07:26:32;96289.63;;;16.19;100.00
4598;BME280;62772;48.646;8.906;2023-07-22T07:31:32;96288.59;;;16.39;100.00
4598;BME280;62772;48.646;8.906;2023-07-22T07:36:33;96290.66;;;16.46;100.00
4598;BME280;62772;48.646;8.906;2023-07-22T07:41:34;96287.44;;;16.88;100.00
4598;BME280;62772;48.646;8.906;2023-07-22T07:46:34;96292.25;;;17.14;100.00
4598;BME280;62772;48.646;8.906;2023-07-22T07:51:35;96286.38;;;17.67;100.00
4598;BME280;62772;48.646;8.906;2023-07-22T07:56:35;96290.34;;;17.73;100.00
4598;BME280;62772;48.646;8.906;2023-07-22T08:01:36;96286.59;;;17.98;99.02
4598;BME280;62772;48.646;8.906;2023-07-22T08:06:41;96289.59;;;18.16;89.76
4598;BME280;62772;48.646;8.906;2023-07-22T08:11:42;96282.94;;;18.09;94.25
4598;BME280;62772;48.646;8.906;2023-07-22T08:16:43;96295.84;;;18.20;94.76
4598;BME280;62772;48.646;8.906;2023-07-22T08:21:44;96286.34;;;18.53;75.19
4598;BME280;62772;48.646;8.906;2023-07-22T08:26:44;96283.06;;;18.40;70.61
4598;BME280;62772;48.646;8.906;2023-07-22T08:31:45;96280.72;;;18.88;70.30
4598;BME280;62772;48.646;8.906;2023-07-22T08:36:45;96276.13;;;19.19;68.28
4598;BME280;62772;48.646;8.906;2023-07-22T08:41:49;96274.84;;;19.39;65.32
4598;BME280;62772;48.646;8.906;2023-07-22T08:46:55;96279.84;;;19.37;63.79
4598;BME280;62772;48.646;8.906;2023-07-22T08:51:57;96272.41;;;19.31;68.43
4598;BME280;62772;48.646;8.906;2023-07-22T08:56:59;96283.38;;;19.42;70.93
4598;BME280;62772;48.646;8.906;2023-07-22T09:02:00;96278.50;;;19.54;65.88
4598;BME280;62772;48.646;8.906;2023-07-22T09:07:01;96283.72;;;19.36;67.63
4598;BME280;62772;48.646;8.906;2023-07-22T09:12:03;96292.53;;;19.64;63.53
4598;BME280;62772;48.646;8.906;2023-07-22T09:17:05;96285.97;;;19.65;60.50
4598;BME280;62772;48.646;8.906;2023-07-22T09:22:07;96287.81;;;19.57;62.61
4598;BME280;62772;48.646;8.906;2023-07-22T09:27:08;96274.84;;;19.73;66.49
4598;BME280;62772;48.646;8.906;2023-07-22T09:32:08;96276.75;;;19.69;64.48
4598;BME280;62772;48.646;8.906;2023-07-22T09:37:09;96274.13;;;19.77;64.64
4598;BME280;62772;48.646;8.906;2023-07-22T09:42:09;96271.94;;;19.89;60.72
4598;BME280;62772;48.646;8.906;2023-07-22T09:47:10;96275.78;;;20.26;68.72
4598;BME280;62772;48.646;8.906;2023-07-22T09:52:11;96272.94;;;20.60;60.41
4598;BME280;62772;48.646;8.906;2023-07-22T09:57:14;96270.09;;;20.38;60.91
4598;BME280;62772;48.646;8.906;2023-07-22T10:02:17;96267.97;;;20.17;61.09
4598;BME280;62772;48.646;8.906;2023-07-22T10:07:19;96270.31;;;20.19;60.69
4598;BME280;62772;48.646;8.906;2023-07-22T10:12:20;96261.72;;;20.13;58.86
4598;BME280;62772;48.646;8.906;2023-07-22T10:17:21;96260.72;;;19.91;59.53
4598;BME280;62772;48.646;8.906;2023-07-22T10:22:22;96264.47;;;20.17;62.93
4598;BME280;62772;48.646;8.906;2023-07-22T10:27:23;96262.22;;;19.85;61.94
4598;BME280;62772;48.646;8.906;2023-07-22T10:32:24;96257.78;;;20.07;60.39
4598;BME280;62772;48.646;8.906;2023-07-22T10:37:32;96259.13;;;20.27;64.15
4598;BME280;62772;48.646;8.906;2023-07-22T10:42:33;96257.13;;;20.17;64.30
4598;BME280;62772;48.646;8.906;2023-07-22T10:47:34;96254.13;;;19.88;67.99
4598;BME280;62772;48.646;8.906;2023-07-22T10:52:41;96258.16;;;20.05;67.26
4598;BME280;62772;48.646;8.906;2023-07-22T10:57:50;96256.44;;;20.27;69.98
4598;BME280;62772;48.646;8.906;2023-07-22T11:08:10;96235.72;;;20.08;66.35
4598;BME280;62772;48.646;8.906;2023-07-22T11:13:13;96233.75;;;20.50;67.65
4598;BME280;62772;48.646;8.906;2023-07-22T11:18:14;96232.56;;;21.03;58.06
4598;BME280;62772;48.646;8.906;2023-07-22T11:23:15;96220.47;;;20.93;58.05
4598;BME280;62772;48.646;8.906;2023-07-22T11:28:15;96204.28;;;21.11;57.16
4598;BME280;62772;48.646;8.906;2023-07-22T11:33:16;96207.88;;;21.41;55.41
4598;BME280;62772;48.646;8.906;2023-07-22T11:38:16;96205.16;;;21.33;54.76
4598;BME280;62772;48.646;8.906;2023-07-22T11:43:17;96197.09;;;21.62;55.73
4598;BME280;62772;48.646;8.906;2023-07-22T11:48:18;96191.28;;;21.67;55.06
4598;BME280;62772;48.646;8.906;2023-07-22T11:53:19;96187.03;;;21.73;52.98
4598;BME280;62772;48.646;8.906;2023-07-22T11:58:27;96184.69;;;21.65;56.82
4598;BME280;62772;48.646;8.906;2023-07-22T12:03:34;96183.03;;;21.46;55.59
4598;BME280;62772;48.646;8.906;2023-07-22T12:08:36;96184.97;;;21.31;55.83
4598;BME280;62772;48.646;8.906;2023-07-22T12:13:37;96181.56;;;21.55;55.36
4598;BME280;62772;48.646;8.906;2023-07-22T12:18:42;96175.78;;;21.93;55.60
4598;BME280;62772;48.646;8.906;2023-07-22T12:23:42;96182.00;;;22.26;55.48
4598;BME280;62772;48.646;8.906;2023-07-22T12:28:43;96178.53;;;22.47;52.06
4598;BME280;62772;48.646;8.906;2023-07-22T12:33:44;96174.22;;;22.03;52.96
4598;BME280;62772;48.646;8.906;2023-07-22T12:38:44;96174.63;;;21.98;55.57
4598;BME280;62772;48.646;8.906;2023-07-22T12:43:45;96173.47;;;22.35;53.48
4598;BME280;62772;48.646;8.906;2023-07-22T12:48:45;96156.34;;;22.63;49.84
4598;BME280;62772;48.646;8.906;2023-07-22T12:53:45;96150.50;;;22.72;49.56
4598;BME280;62772;48.646;8.906;2023-07-22T12:58:46;96141.56;;;22.57;50.04
4598;BME280;62772;48.646;8.906;2023-07-22T13:03:46;96137.97;;;22.92;47.24
4598;BME280;62772;48.646;8.906;2023-07-22T13:08:47;96152.47;;;22.42;48.62
4598;BME280;62772;48.646;8.906;2023-07-22T13:13:47;96139.28;;;22.37;49.76
4598;BME280;62772;48.646;8.906;2023-07-22T13:18:47;96143.00;;;22.94;47.18
4598;BME280;62772;48.646;8.906;2023-07-22T13:23:48;96149.19;;;23.20;49.90
4598;BME280;62772;48.646;8.906;2023-07-22T13:28:49;96151.53;;;23.07;49.74
4598;BME280;62772;48.646;8.906;2023-07-22T13:33:49;96144.94;;;23.00;49.19
4598;BME280;62772;48.646;8.906;2023-07-22T13:38:49;96137.81;;;23.32;49.29
4598;BME280;62772;48.646;8.906;2023-07-22T13:43:50;96136.19;;;23.45;48.06
4598;BME280;62772;48.646;8.906;2023-07-22T13:48:50;96128.75;;;23.49;47.90
4598;BME280;62772;48.646;8.906;2023-07-22T13:53:51;96128.75;;;23.53;46.31
4598;BME280;62772;48.646;8.906;2023-07-22T13:58:55;96131.50;;;22.46;48.41
4598;BME280;62772;48.646;8.906;2023-07-22T14:03:55;96138.38;;;22.83;49.46
4598;BME280;62772;48.646;8.906;2023-07-22T14:08:56;96132.81;;;23.16;48.72
4598;BME280;62772;48.646;8.906;2023-07-22T14:13:56;96127.66;;;23.36;47.14
4598;BME280;62772;48.646;8.906;2023-07-22T14:18:56;96123.56;;;22.95;48.67
4598;BME280;62772;48.646;8.906;2023-07-22T14:23:57;96116.38;;;23.38;47.56
4598;BME280;62772;48.646;8.906;2023-07-22T14:28:57;96118.94;;;23.63;49.54
4598;BME280;62772;48.646;8.906;2023-07-22T14:33:58;96102.22;;;23.57;46.27
4598;BME280;62772;48.646;8.906;2023-07-22T14:38:58;96102.13;;;23.75;45.75
4598;BME280;62772;48.646;8.906;2023-07-22T14:43:59;96114.66;;;23.62;45.83
4598;BME280;62772;48.646;8.906;2023-07-22T14:48:59;96106.78;;;23.15;47.59
4598;BME280;62772;48.646;8.906;2023-07-22T14:54:00;96110.28;;;23.12;48.25
4598;BME280;62772;48.646;8.906;2023-07-22T14:59:01;96103.66;;;23.16;47.72
4598;BME280;62772;48.646;8.906;2023-07-22T15:04:01;96107.03;;;23.35;46.96
4598;BME280;62772;48.646;8.906;2023-07-22T15:09:03;96103.09;;;23.47;46.33
4598;BME280;62772;48.646;8.906;2023-07-22T15:14:07;96092.63;;;23.42;45.89
4598;BME280;62772;48.646;8.906;2023-07-22T15:19:07;96090.63;;;23.46;47.07
4598;BME280;62772;48.646;8.906;2023-07-22T15:24:08;96089.28;;;23.09;45.86
4598;BME280;62772;48.646;8.906;2023-07-22T15:29:08;96102.53;;;22.99;45.47
4598;BME280;62772;48.646;8.906;2023-07-22T15:34:09;96096.38;;;22.85;46.91
4598;BME280;62772;48.646;8.906;2023-07-22T15:39:09;96090.00;;;23.20;46.56
4598;BME280;62772;48.646;8.906;2023-07-22T15:44:10;96092.81;;;23.02;48.41
4598;BME280;62772;48.646;8.906;2023-07-22T15:49:10;96091.47;;;23.32;45.50
4598;BME280;62772;48.646;8.906;2023-07-22T15:54:11;96087.34;;;23.09;46.23
4598;BME280;62772;48.646;8.906;2023-07-22T15:59:14;96096.19;;;23.28;45.85
4598;BME280;62772;48.646;8.906;2023-07-22T16:04:15;96107.56;;;23.05;46.47
4598;BME280;62772;48.646;8.906;2023-07-22T16:09:15;96102.91;;;23.01;47.21
4598;BME280;62772;48.646;8.906;2023-07-22T16:14:16;96109.94;;;22.95;46.71
4598;BME280;62772;48.646;8.906;2023-07-22T16:19:16;96105.63;;;23.12;46.40
4598;BME280;62772;48.646;8.906;2023-07-22T16:24:17;96101.66;;;23.21;45.57
4598;BME280;62772;48.646;8.906;2023-07-22T16:29:17;96101.44;;;23.60;43.67
4598;BME280;62772;48.646;8.906;2023-07-22T16:34:18;96100.88;;;23.87;46.30
4598;BME280;62772;48.646;8.906;2023-07-22T16:39:19;96104.63;;;24.04;43.92
4598;BME280;62772;48.646;8.906;2023-07-22T16:44:20;96112.88;;;23.97;44.79
4598;BME280;62772;48.646;8.906;2023-07-22T16:49:21;96096.13;;;24.36;45.02
4598;BME280;62772;48.646;8.906;2023-07-22T16:54:22;96103.69;;;24.21;43.69
4598;BME280;62772;48.646;8.906;2023-07-22T16:59:23;96095.97;;;24.13;44.36
4598;BME280;62772;48.646;8.906;2023-07-22T17:04:24;96090.31;;;23.89;44.25
4598;BME280;62772;48.646;8.906;2023-07-22T17:09:24;96091.81;;;23.41;44.87
4598;BME280;62772;48.646;8.906;2023-07-22T17:14:24;96087.22;;;23.27;45.57
4598;BME280;62772;48.646;8.906;2023-07-22T17:19:25;96091.72;;;23.55;43.74
4598;BME280;62772;48.646;8.906;2023-07-22T17:24:25;96092.00;;;23.72;45.26
4598;BME280;62772;48.646;8.906;2023-07-22T17:29:26;96093.69;;;23.55;45.07
4598;BME280;62772;48.646;8.906;2023-07-22T17:34:26;96088.59;;;24.09;44.98
4598;BME280;62772;48.646;8.906;2023-07-22T17:39:27;96087.59;;;24.34;43.42
4598;BME280;62772;48.646;8.906;2023-07-22T17:44:27;96083.03;;;23.71;44.78
4598;BME280;62772;48.646;8.906;2023-07-22T17:49:29;96085.28;;;23.87;46.30
4598;BME280;62772;48.646;8.906;2023-07-22T17:54:29;96079.47;;;23.26;46.50
4598;BME280;62772;48.646;8.906;2023-07-22T17:59:29;96083.53;;;22.92;45.99
4598;BME280;62772;48.646;8.906;2023-07-22T18:04:34;96072.94;;;23.12;47.13
4598;BME280;62772;48.646;8.906;2023-07-22T18:09:34;96078.94;;;22.71;47.45
4598;BME280;62772;48.646;8.906;2023-07-22T18:14:35;96084.03;;;22.58;47.82
4598;BME280;62772;48.646;8.906;2023-07-22T18:19:35;96091.00;;;22.67;48.51
4598;BME280;62772;48.646;8.906;2023-07-22T18:24:36;96081.13;;;23.09;47.37
4598;BME280;62772;48.646;8.906;2023-07-22T18:29:36;96079.78;;;22.28;48.63
4598;BME280;62772;48.646;8.906;2023-07-22T18:34:36;96080.22;;;22.16;49.61
4598;BME280;62772;48.646;8.906;2023-07-22T18:39:38;96083.72;;;22.24;49.48
4598;BME280;62772;48.646;8.906;2023-07-22T18:44:40;96089.56;;;21.97;50.78
4598;BME280;62772;48.646;8.906;2023-07-22T18:49:40;96082.56;;;22.10;51.76
4598;BME280;62772;48.646;8.906;2023-07-22T18:54:41;96089.19;;;22.02;52.20
4598;BME280;62772;48.646;8.906;2023-07-22T18:59:42;96093.81;;;22.20;53.45
4598;BME280;62772;48.646;8.906;2023-07-22T19:04:43;96086.84;;;21.97;53.29
4598;BME280;62772;48.646;8.906;2023-07-22T19:09:43;96088.81;;;21.86;54.16
4598;BME280;62772;48.646;8.906;2023-07-22T19:14:44;96090.22;;;20.97;60.77
4598;BME280;62772;48.646;8.906;2023-07-22T19:19:45;96087.91;;;21.13;60.07
4598;BME280;62772;48.646;8.906;2023-07-22T19:24:46;96092.16;;;21.07;64.02
4598;BME280;62772;48.646;8.906;2023-07-22T19:29:49;96102.53;;;19.65;69.37
4598;BME280;62772;48.646;8.906;2023-07-22T19:34:50;96106.53;;;20.30;67.64
4598;BME280;62772;48.646;8.906;2023-07-22T19:39:51;96109.50;;;20.70;67.35
4598;BME280;62772;48.646;8.906;2023-07-22T19:44:52;96120.59;;;19.91;68.89
4598;BME280;62772;48.646;8.906;2023-07-22T19:49:53;96126.75;;;19.88;72.40
4598;BME280;62772;48.646;8.906;2023-07-22T19:54:53;96117.81;;;19.84;70.96
4598;BME280;62772;48.646;8.906;2023-07-22T19:59:53;96119.34;;;20.34;69.60
4598;BME280;62772;48.646;8.906;2023-07-22T20:04:54;96122.50;;;20.46;68.49
4598;BME280;62772;48.646;8.906;2023-07-22T20:09:54;96118.56;;;19.78;71.30
4598;BME280;62772;48.646;8.906;2023-07-22T20:14:55;96114.72;;;19.41;74.37
4598;BME280;62772;48.646;8.906;2023-07-22T20:19:55;96124.47;;;19.53;76.68
4598;BME280;62772;48.646;8.906;2023-07-22T20:24:56;96120.09;;;19.79;75.60
4598;BME280;62772;48.646;8.906;2023-07-22T20:29:56;96119.25;;;18.96;79.12
4598;BME280;62772;48.646;8.906;2023-07-22T20:34:57;96126.44;;;18.01;86.77
4598;BME280;62772;48.646;8.906;2023-07-22T20:39:58;96122.91;;;17.97;89.26
4598;BME280;62772;48.646;8.906;2023-07-22T20:44:59;96128.28;;;17.73;91.37
4598;BME280;62772;48.646;8.906;2023-07-22T20:49:59;96127.72;;;17.84;90.18
4598;BME280;62772;48.646;8.906;2023-07-22T20:55:00;96129.25;;;17.85;90.37
4598;BME280;62772;48.646;8.906;2023-07-22T21:00:01;96127.16;;;18.51;88.31
4598;BME280;62772;48.646;8.906;2023-07-22T21:05:02;96129.44;;;18.45;86.71
4598;BME280;62772;48.646;8.906;2023-07-22T21:10:03;96129.44;;;19.06;83.44
4598;BME280;62772;48.646;8.906;2023-07-22T21:15:04;96128.31;;;19.11;83.31
4598;BME280;62772;48.646;8.906;2023-07-22T21:20:05;96128.34;;;18.80;85.32
4598;BME280;62772;48.646;8.906;2023-07-22T21:25:06;96123.75;;;18.84;84.17
4598;BME280;62772;48.646;8.906;2023-07-22T21:30:08;96124.25;;;18.63;86.98
4598;BME280;62772;48.646;8.906;2023-07-22T21:35:08;96127.91;;;18.48;88.22
4598;BME280;62772;48.646;8.906;2023-07-22T21:40:09;96126.19;;;18.09;91.46
4598;BME280;62772;48.646;8.906;2023-07-22T21:45:10;96125.56;;;18.20;90.99
4598;BME280;62772;48.646;8.906;2023-07-22T21:50:10;96118.97;;;18.44;88.49
4598;BME280;62772;48.646;8.906;2023-07-22T21:55:11;96114.19;;;18.64;87.83
4598;BME280;62772;48.646;8.906;2023-07-22T22:00:12;96120.25;;;18.54;86.67
4598;BME280;62772;48.646;8.906;2023-07-22T22:05:15;96121.00;;;18.24;88.81
4598;BME280;62772;48.646;8.906;2023-07-22T22:10:16;96126.97;;;18.10;87.77
4598;BME280;62772;48.646;8.906;2023-07-22T22:15:16;96120.69;;;18.29;87.16
4598;BME280;62772;48.646;8.906;2023-07-22T22:20:17;96127.63;;;18.26;87.56
4598;BME280;62772;48.646;8.906;2023-07-22T22:25:17;96121.69;;;18.17;89.31
4598;BME280;62772;48.646;8.906;2023-07-22T22:30:18;96116.88;;;18.07;88.63
4598;BME280;62772;48.646;8.906;2023-07-22T22:35:18;96117.81;;;17.91;89.74
4598;BME280;62772;48.646;8.906;2023-07-22T22:40:19;96117.22;;;17.79;90.57
4598;BME280;62772;48.646;8.906;2023-07-22T22:45:19;96116.78;;;17.53;92.12
4598;BME280;62772;48.646;8.906;2023-07-22T22:50:20;96112.16;;;17.77;91.15
4598;BME280;62772;48.646;8.906;2023-07-22T22:55:20;96113.47;;;17.64;92.60
4598;BME280;62772;48.646;8.906;2023-07-22T23:00:21;96109.59;;;17.61;91.58
4598;BME280;62772;48.646;8.906;2023-07-22T23:05:22;96111.91;;;17.39;93.26
4598;BME280;62772;48.646;8.906;2023-07-22T23:10:22;96113.38;;;17.14;94.97
4598;BME280;62772;48.646;8.906;2023-07-22T23:15:23;96107.41;;;16.85;95.39
4598;BME280;62772;48.646;8.906;2023-07-22T23:20:23;96110.44;;;16.44;99.57
4598;BME280;62772;48.646;8.906;2023-07-22T23:25:24;96116.09;;;16.04;100.00
4598;BME280;62772;48.646;8.906;2023-07-22T23:30:24;96112.47;;;15.80;100.00
4598;BME280;62772;48.646;8.906;2023-07-22T23:35:25;96115.06;;;16.44;100.00
4598;BME280;62772;48.646;8.906;2023-07-22T23:40:25;96108.06;;;16.23;100.00
4598;BME280;62772;48.646;8.906;2023-07-22T23:45:26;96103.63;;;16.70;100.00
4598;BME280;62772;48.646;8.906;2023-07-22T23:50:26;96100.53;;;16.13;100.00
4598;BME280;62772;48.646;8.906;2023-07-22T23:55:28;96101.34;;;15.98;100.00
